createdAt,value
2019-02-19T00:00:40.328Z,6.50
2019-02-19T00:03:09.719Z,6.48
2019-02-19T00:05:39.201Z,6.43
2019-02-19T00:08:08.699Z,6.35
2019-02-19T00:10:38.240Z,6.44
2019-02-19T00:13:07.856Z,6.23
2019-02-19T00:15:37.340Z,6.28
2019-02-19T00:18:06.802Z,6.33
2019-02-19T00:20:36.192Z,6.37
2019-02-19T00:23:05.854Z,6.28
2019-02-19T00:25:35.344Z,6.37
2019-02-19T00:28:05.018Z,6.25
2019-02-19T00:30:34.471Z,6.13
2019-02-19T00:33:04.191Z,6.05
2019-02-19T00:35:33.927Z,6.05
2019-02-19T00:38:03.500Z,6.06
2019-02-19T00:40:33.293Z,6.08
2019-02-19T00:43:03.139Z,6.15
2019-02-19T00:45:32.799Z,6.27
2019-02-19T00:48:02.431Z,6.34
2019-02-19T00:50:32.328Z,6.42
2019-02-19T00:53:01.882Z,6.48
2019-02-19T00:55:31.270Z,6.42
2019-02-19T00:58:00.938Z,6.44
2019-02-19T01:00:30.418Z,6.58
2019-02-19T01:03:00.011Z,6.52
2019-02-19T01:05:29.686Z,6.40
2019-02-19T01:07:59.329Z,6.23
2019-02-19T01:10:28.815Z,6.26
2019-02-19T01:12:58.336Z,6.27
2019-02-19T01:15:27.886Z,6.21
2019-02-19T01:17:57.715Z,6.21
2019-02-19T01:20:27.238Z,6.11
2019-02-19T01:22:56.895Z,6.06
2019-02-19T01:25:26.597Z,6.04
2019-02-19T01:27:56.372Z,6.02
2019-02-19T01:30:26.066Z,5.93
2019-02-19T01:32:55.671Z,5.87
2019-02-19T01:35:25.332Z,5.89
2019-02-19T01:37:55.198Z,6.00
2019-02-19T01:40:24.596Z,5.98
2019-02-19T01:42:54.254Z,6.08
2019-02-19T01:45:23.770Z,6.05
2019-02-19T01:47:53.511Z,5.93
2019-02-19T01:50:22.887Z,5.88
2019-02-19T01:52:52.428Z,5.87
2019-02-19T01:55:22.232Z,5.92
2019-02-19T01:57:51.956Z,6.04
2019-02-19T02:00:21.815Z,5.99
2019-02-19T02:02:51.581Z,6.17
2019-02-19T02:05:21.174Z,6.13
2019-02-19T02:07:50.606Z,6.08
2019-02-19T02:10:20.305Z,5.97
2019-02-19T02:12:49.777Z,5.88
2019-02-19T02:15:19.388Z,5.85
2019-02-19T02:17:49.060Z,5.78
2019-02-19T02:20:18.552Z,5.75
2019-02-19T02:22:48.332Z,5.73
2019-02-19T02:25:17.925Z,5.69
2019-02-19T02:27:47.585Z,5.46
2019-02-19T02:30:17.315Z,5.53
2019-02-19T02:32:47.055Z,5.49
2019-02-19T02:35:16.790Z,5.57
2019-02-19T02:37:46.432Z,5.43
2019-02-19T02:40:16.193Z,5.61
2019-02-19T02:42:45.993Z,5.50
2019-02-19T02:45:15.361Z,5.45
2019-02-19T02:47:44.768Z,5.50
2019-02-19T02:50:14.612Z,5.61
2019-02-19T02:52:44.333Z,5.59
2019-02-19T02:55:13.880Z,5.60
2019-02-19T02:57:43.328Z,5.52
2019-02-19T03:00:13.260Z,5.44
2019-02-19T03:02:42.900Z,5.32
2019-02-19T03:05:12.449Z,5.15
2019-02-19T03:07:45.507Z,5.23
2019-02-19T03:10:15.101Z,5.19
2019-02-19T03:12:44.652Z,5.09
2019-02-19T03:15:15.010Z,5.08
2019-02-19T03:17:44.672Z,4.95
2019-02-19T03:20:14.063Z,4.77
2019-02-19T03:22:43.550Z,4.98
2019-02-19T03:25:13.060Z,4.96
2019-02-19T03:27:42.541Z,4.85
2019-02-19T03:30:12.381Z,5.04
2019-02-19T03:32:41.918Z,5.07
2019-02-19T03:35:11.626Z,4.97
2019-02-19T03:37:41.445Z,4.97
2019-02-19T03:40:11.260Z,4.93
2019-02-19T03:42:40.645Z,4.83
2019-02-19T03:45:11.276Z,4.77
2019-02-19T03:47:40.998Z,4.80
2019-02-19T03:50:10.387Z,4.76
2019-02-19T03:52:39.914Z,4.75
2019-02-19T03:55:09.384Z,4.69
2019-02-19T03:57:38.785Z,4.62
2019-02-19T04:00:08.951Z,4.57
2019-02-19T04:02:38.750Z,4.40
2019-02-19T04:05:08.229Z,4.30
2019-02-19T04:07:37.791Z,4.37
2019-02-19T04:10:07.932Z,4.50
2019-02-19T04:12:37.667Z,4.61
2019-02-19T04:15:07.607Z,4.53
2019-02-19T04:17:37.248Z,4.44
2019-02-19T04:20:07.339Z,4.45
2019-02-19T04:22:37.030Z,4.48
2019-02-19T04:25:06.623Z,4.43
2019-02-19T04:27:36.247Z,4.38
2019-02-19T04:30:06.257Z,4.36
2019-02-19T04:32:36.004Z,4.41
2019-02-19T04:35:05.972Z,4.39
2019-02-19T04:37:35.776Z,4.38
2019-02-19T04:40:05.593Z,4.35
2019-02-19T04:42:35.193Z,4.29
2019-02-19T04:45:05.131Z,4.27
2019-02-19T04:47:34.821Z,4.54
2019-02-19T04:50:04.302Z,4.49
2019-02-19T04:52:34.030Z,4.64
2019-02-19T04:55:04.049Z,4.59
2019-02-19T04:57:33.765Z,4.53
2019-02-19T05:00:03.242Z,4.57
2019-02-19T05:02:32.990Z,4.56
2019-02-19T05:05:02.747Z,4.60
2019-02-19T05:07:32.417Z,4.57
2019-02-19T05:10:01.994Z,4.59
2019-02-19T05:12:31.608Z,4.65
2019-02-19T05:15:01.323Z,4.51
2019-02-19T05:17:30.821Z,4.40
2019-02-19T05:20:00.267Z,4.28
2019-02-19T05:22:29.973Z,4.42
2019-02-19T05:24:59.804Z,4.38
2019-02-19T05:27:29.278Z,4.29
2019-02-19T05:29:58.951Z,4.34
2019-02-19T05:32:28.737Z,4.40
2019-02-19T05:34:58.494Z,4.44
2019-02-19T05:37:27.949Z,4.30
2019-02-19T05:39:57.474Z,4.15
2019-02-19T05:42:27.083Z,4.17
2019-02-19T05:44:56.579Z,4.23
2019-02-19T05:47:26.305Z,4.33
2019-02-19T05:49:55.693Z,4.33
2019-02-19T05:52:25.209Z,4.30
2019-02-19T05:54:54.926Z,4.48
2019-02-19T05:57:24.322Z,4.62
2019-02-19T05:59:53.807Z,4.65
2019-02-19T06:02:23.609Z,4.50
2019-02-19T06:04:53.137Z,4.69
2019-02-19T06:07:22.859Z,4.74
2019-02-19T06:09:52.530Z,4.83
2019-02-19T06:12:22.277Z,5.04
2019-02-19T06:14:51.679Z,5.03
2019-02-19T06:17:21.270Z,5.20
2019-02-19T06:19:51.109Z,5.30
2019-02-19T06:22:20.719Z,5.46
2019-02-19T06:24:50.345Z,5.60
2019-02-19T06:27:20.179Z,5.66
2019-02-19T06:29:49.942Z,5.76
2019-02-19T06:32:19.734Z,5.91
2019-02-19T06:34:49.336Z,5.96
2019-02-19T06:37:19.157Z,6.05
2019-02-19T06:39:48.748Z,6.17
2019-02-19T06:42:18.163Z,6.21
2019-02-19T06:44:47.934Z,6.34
2019-02-19T06:47:17.614Z,6.48
2019-02-19T06:49:47.287Z,6.57
2019-02-19T06:52:17.090Z,6.51
2019-02-19T06:54:46.828Z,6.27
2019-02-19T06:57:16.526Z,6.53
2019-02-19T06:59:46.123Z,6.88
2019-02-19T07:02:28.855Z,7.25
2019-02-19T07:05:00.419Z,7.61
2019-02-19T07:07:29.896Z,8.17
2019-02-19T07:09:59.286Z,8.60
2019-02-19T07:12:29.009Z,8.67
2019-02-19T07:14:58.546Z,8.80
2019-02-19T07:17:28.230Z,9.11
2019-02-19T07:19:57.979Z,9.51
2019-02-19T07:22:27.735Z,9.71
2019-02-19T07:24:57.348Z,10.12
2019-02-19T07:27:26.948Z,10.90
2019-02-19T07:29:56.671Z,11.73
2019-02-19T07:32:26.151Z,12.67
2019-02-19T07:34:55.670Z,13.48
2019-02-19T07:37:25.396Z,13.71
2019-02-19T07:39:55.210Z,13.50
2019-02-19T07:42:25.051Z,13.37
2019-02-19T07:44:54.602Z,13.34
2019-02-19T07:47:24.856Z,13.29
2019-02-19T07:49:54.381Z,13.22
2019-02-19T07:52:24.262Z,12.95
2019-02-19T07:54:53.850Z,12.56
2019-02-19T07:57:23.521Z,12.41
2019-02-19T07:59:54.211Z,12.28
2019-02-19T08:02:23.788Z,12.10
2019-02-19T08:04:53.403Z,12.03
2019-02-19T08:07:22.865Z,11.93
2019-02-19T08:09:52.749Z,11.90
2019-02-19T08:12:22.539Z,11.92
2019-02-19T08:14:52.008Z,11.84
2019-02-19T08:17:21.469Z,11.80
2019-02-19T08:19:51.174Z,11.82
2019-02-19T08:22:20.767Z,11.54
2019-02-19T08:24:50.360Z,11.23
2019-02-19T08:27:20.189Z,11.17
2019-02-19T08:29:49.697Z,11.32
2019-02-19T08:32:19.141Z,11.47
2019-02-19T08:34:48.825Z,11.46
2019-02-19T08:37:18.503Z,11.41
2019-02-19T08:39:48.096Z,11.43
2019-02-19T08:42:17.545Z,11.71
2019-02-19T08:44:47.035Z,12.03
2019-02-19T08:47:16.616Z,12.34
2019-02-19T08:49:46.267Z,12.82
2019-02-19T08:52:15.792Z,13.27
2019-02-19T08:54:45.560Z,13.78
2019-02-19T08:57:15.259Z,14.17
2019-02-19T08:59:44.855Z,14.39
2019-02-19T09:02:14.588Z,14.56
2019-02-19T09:04:44.439Z,14.94
2019-02-19T09:07:14.205Z,15.41
2019-02-19T09:09:43.889Z,16.15
2019-02-19T09:12:13.678Z,16.79
2019-02-19T09:14:43.407Z,17.29
2019-02-19T09:17:13.196Z,17.83
2019-02-19T09:19:43.121Z,18.58
2019-02-19T09:22:12.848Z,19.16
2019-02-19T09:24:42.475Z,19.53
2019-02-19T09:27:12.222Z,19.93
2019-02-19T09:29:42.003Z,20.39
2019-02-19T09:32:11.682Z,21.08
2019-02-19T09:34:41.302Z,21.68
2019-02-19T09:37:10.755Z,22.42
2019-02-19T09:39:40.242Z,22.82
2019-02-19T09:42:09.902Z,23.26
2019-02-19T09:44:39.309Z,23.63
2019-02-19T09:47:09.038Z,23.97
2019-02-19T09:49:38.833Z,24.35
2019-02-19T09:52:08.275Z,24.71
2019-02-19T09:54:37.946Z,24.96
2019-02-19T09:57:07.543Z,25.48
2019-02-19T09:59:37.169Z,25.31
2019-02-19T10:02:06.982Z,26.04
2019-02-19T10:04:36.739Z,26.48
2019-02-19T10:07:06.497Z,26.95
2019-02-19T10:09:36.171Z,27.19
2019-02-19T10:12:05.835Z,27.71
2019-02-19T10:14:35.527Z,28.47
2019-02-19T10:17:05.322Z,28.56
2019-02-19T10:19:34.926Z,28.57
2019-02-19T10:22:04.729Z,27.97
2019-02-19T10:24:34.471Z,28.27
2019-02-19T10:27:04.348Z,29.06
2019-02-19T10:29:34.071Z,29.16
2019-02-19T10:32:03.524Z,29.66
2019-02-19T10:34:33.295Z,29.97
2019-02-19T10:37:02.944Z,30.29
2019-02-19T10:39:32.770Z,30.57
2019-02-19T10:42:02.218Z,31.31
2019-02-19T10:44:31.597Z,31.65
2019-02-19T10:47:01.038Z,31.39
2019-02-19T10:49:30.742Z,32.18
2019-02-19T10:52:00.427Z,33.45
2019-02-19T10:54:30.071Z,34.01
2019-02-19T10:56:59.663Z,34.10
2019-02-19T10:59:29.462Z,34.11
2019-02-19T11:01:59.263Z,34.67
2019-02-19T11:04:28.868Z,34.22
2019-02-19T11:06:58.596Z,34.39
2019-02-19T11:09:28.293Z,34.33
2019-02-19T11:11:58.154Z,34.60
2019-02-19T11:14:27.872Z,34.66
2019-02-19T11:16:57.420Z,35.61
2019-02-19T11:19:26.810Z,35.56
2019-02-19T11:21:56.361Z,36.28
2019-02-19T11:24:26.153Z,36.30
2019-02-19T11:26:55.882Z,35.10
2019-02-19T11:29:25.443Z,34.10
2019-02-19T11:31:55.180Z,35.03
2019-02-19T11:34:24.671Z,35.95
2019-02-19T11:36:54.363Z,37.16
2019-02-19T11:39:24.083Z,38.04
2019-02-19T11:41:53.718Z,38.38
2019-02-19T11:44:23.232Z,38.17
2019-02-19T11:46:52.997Z,38.57
2019-02-19T11:49:22.393Z,38.51
2019-02-19T11:51:52.115Z,39.32
2019-02-19T11:54:21.980Z,39.82
2019-02-19T11:56:51.753Z,39.85
2019-02-19T11:59:21.274Z,39.85
2019-02-19T12:01:51.123Z,39.13
2019-02-19T12:04:20.513Z,38.77
2019-02-19T12:06:49.994Z,38.74
2019-02-19T12:09:19.849Z,38.81
2019-02-19T12:11:49.385Z,39.13
2019-02-19T12:14:18.967Z,39.24
2019-02-19T12:16:48.821Z,38.84
2019-02-19T12:19:18.440Z,39.34
2019-02-19T12:21:48.218Z,39.28
2019-02-19T12:24:17.702Z,39.45
2019-02-19T12:26:47.597Z,39.77
2019-02-19T12:29:17.272Z,38.65
2019-02-19T12:31:47.045Z,38.65
2019-02-19T12:34:16.626Z,36.99
2019-02-19T12:36:46.460Z,38.06
2019-02-19T12:39:15.950Z,37.95
2019-02-19T12:41:45.779Z,36.07
2019-02-19T12:44:15.276Z,34.96
2019-02-19T12:46:45.085Z,35.59
2019-02-19T12:49:16.439Z,36.59
2019-02-19T12:51:46.261Z,37.07
2019-02-19T12:54:15.761Z,36.82
2019-02-19T12:56:45.565Z,36.74
2019-02-19T12:59:15.212Z,36.72
2019-02-19T13:01:45.060Z,36.62
2019-02-19T13:04:14.914Z,35.93
2019-02-19T13:06:44.363Z,35.15
2019-02-19T13:09:13.762Z,34.64
2019-02-19T13:11:43.493Z,34.11
2019-02-19T13:14:13.379Z,34.50
2019-02-19T13:16:42.848Z,33.84
2019-02-19T13:19:12.256Z,33.72
2019-02-19T13:21:41.872Z,32.29
2019-02-19T13:24:11.362Z,33.27
2019-02-19T13:26:40.922Z,32.93
2019-02-19T13:29:10.649Z,31.86
2019-02-19T13:31:40.480Z,30.38
2019-02-19T13:34:10.308Z,28.85
2019-02-19T13:36:40.085Z,27.47
2019-02-19T13:39:09.748Z,26.29
2019-02-19T13:41:39.187Z,25.04
2019-02-19T13:44:09.027Z,23.71
2019-02-19T13:46:38.471Z,23.38
2019-02-19T13:49:12.252Z,22.86
2019-02-19T13:51:39.502Z,22.88
2019-02-19T13:56:56.510Z,21.93
2019-02-19T13:59:26.252Z,21.80
2019-02-19T14:01:55.720Z,21.48
2019-02-19T14:04:25.428Z,20.86
2019-02-19T14:06:54.882Z,20.22
2019-02-19T14:09:24.467Z,20.30
2019-02-19T14:11:53.949Z,20.11
2019-02-19T14:14:40.457Z,19.86
2019-02-19T14:17:12.855Z,19.63
2019-02-19T14:19:47.915Z,19.50
2019-02-19T14:22:35.361Z,19.59
2019-02-19T14:25:39.286Z,19.30
2019-02-19T14:28:26.748Z,18.87
2019-02-19T14:31:13.383Z,18.81
2019-02-19T14:34:00.607Z,18.55
2019-02-19T14:36:48.127Z,18.55
2019-02-19T14:39:36.630Z,18.41
2019-02-19T14:42:31.192Z,18.14
2019-02-19T14:45:10.190Z,17.89
2019-02-19T14:47:57.395Z,17.53
2019-02-19T14:50:44.477Z,17.37
2019-02-19T14:53:31.657Z,17.13
2019-02-19T14:56:19.389Z,17.29
2019-02-19T14:59:06.912Z,17.27
2019-02-19T15:02:07.689Z,16.99
2019-02-19T15:04:56.821Z,16.90
2019-02-19T15:07:57.645Z,16.91
2019-02-19T15:10:49.272Z,16.66
2019-02-19T15:13:38.728Z,16.37
2019-02-19T15:16:45.618Z,16.47
2019-02-19T15:19:25.909Z,16.28
2019-02-19T15:22:13.320Z,15.96
2019-02-19T15:25:01.435Z,15.83
2019-02-19T15:27:36.492Z,15.62
2019-02-19T15:30:14.891Z,15.32
2019-02-19T15:33:03.124Z,15.08
2019-02-19T15:35:50.397Z,14.89
2019-02-19T15:38:37.582Z,14.71
2019-02-19T15:41:25.977Z,14.58
2019-02-19T15:44:04.467Z,14.40
2019-02-19T15:46:55.970Z,14.20
2019-02-19T15:49:50.336Z,14.05
2019-02-19T15:52:41.933Z,14.02
2019-02-19T15:55:29.239Z,13.65
2019-02-19T15:58:17.848Z,13.61
2019-02-19T16:01:05.580Z,13.43
2019-02-19T16:03:56.732Z,13.61
2019-02-19T16:06:45.288Z,13.44
2019-02-19T16:09:31.210Z,13.13
2019-02-19T16:12:24.473Z,12.84
2019-02-19T16:15:30.491Z,12.70
2019-02-19T16:18:11.556Z,12.41
2019-02-19T16:21:02.917Z,12.46
2019-02-19T16:23:54.454Z,12.28
2019-02-19T16:26:58.368Z,12.10
2019-02-19T16:29:52.651Z,11.84
2019-02-19T16:32:39.892Z,11.60
2019-02-19T16:35:14.479Z,11.44
2019-02-19T16:38:02.901Z,11.28
2019-02-19T16:40:50.365Z,11.20
2019-02-19T16:43:37.640Z,11.15
2019-02-19T16:46:30.467Z,11.03
2019-02-19T16:49:18.877Z,10.92
2019-02-19T16:52:16.707Z,10.77
2019-02-19T16:55:11.135Z,10.67
2019-02-19T16:57:51.790Z,10.50
2019-02-19T17:00:46.187Z,10.40
2019-02-19T17:03:22.437Z,10.30
2019-02-19T17:06:17.237Z,10.24
2019-02-19T17:08:53.301Z,10.22
2019-02-19T17:11:47.817Z,10.17
2019-02-19T17:14:32.708Z,10.16
2019-02-19T17:17:14.883Z,10.08
2019-02-19T17:20:00.549Z,10.04
2019-02-19T17:22:51.059Z,10.00
2019-02-19T17:25:34.968Z,9.98
2019-02-19T17:28:38.464Z,9.92
2019-02-19T17:31:39.071Z,9.90
2019-02-19T17:34:30.344Z,9.88
2019-02-19T17:37:09.372Z,9.82
2019-02-19T17:39:51.312Z,9.79
2019-02-19T17:42:36.255Z,9.71
2019-02-19T17:45:34.606Z,9.58
2019-02-19T17:48:22.239Z,9.46
2019-02-19T17:51:09.973Z,9.25
2019-02-19T17:54:16.584Z,9.22
2019-02-19T17:57:14.569Z,9.18
2019-02-19T18:00:03.172Z,9.12
2019-02-19T18:02:50.784Z,9.10
2019-02-19T18:05:37.910Z,9.07
2019-02-19T18:08:29.383Z,9.10
2019-02-19T18:11:13.271Z,9.14
2019-02-19T18:14:17.157Z,9.09
2019-02-19T18:17:14.458Z,8.96
2019-02-19T18:19:44.254Z,8.85
2019-02-19T18:22:13.871Z,8.77
2019-02-19T18:24:43.413Z,8.84
2019-02-19T18:27:12.991Z,8.80
2019-02-19T18:29:42.502Z,8.75
2019-02-19T18:32:12.081Z,8.71
2019-02-19T18:34:42.118Z,8.68
2019-02-19T18:37:11.852Z,8.62
2019-02-19T18:39:41.661Z,8.62
2019-02-19T18:42:11.260Z,8.57
2019-02-19T18:44:40.754Z,8.50
2019-02-19T18:47:10.543Z,8.51
2019-02-19T18:49:40.278Z,8.51
2019-02-19T18:52:11.129Z,8.52
2019-02-19T18:54:40.565Z,8.48
2019-02-19T18:57:13.042Z,8.40
2019-02-19T18:59:42.529Z,8.32
2019-02-19T19:02:13.031Z,8.31
2019-02-19T19:04:42.494Z,8.32
2019-02-19T19:07:12.034Z,8.34
2019-02-19T19:09:41.543Z,8.41
2019-02-19T19:12:11.127Z,8.47
2019-02-19T19:14:40.855Z,8.49
2019-02-19T19:17:10.629Z,8.57
2019-02-19T19:19:42.678Z,8.52
2019-02-19T19:22:12.377Z,8.49
2019-02-19T19:24:41.779Z,8.44
2019-02-19T19:27:11.619Z,8.50
2019-02-19T19:29:41.455Z,8.53
2019-02-19T19:32:11.261Z,8.52
2019-02-19T19:34:40.980Z,8.51
2019-02-19T19:37:10.478Z,8.51
2019-02-19T19:39:39.964Z,8.49
2019-02-19T19:42:09.352Z,8.45
2019-02-19T19:44:39.115Z,8.40
2019-02-19T19:47:08.683Z,8.49
2019-02-19T19:49:38.307Z,8.35
2019-02-19T19:52:08.103Z,8.26
2019-02-19T19:54:37.941Z,8.23
2019-02-19T19:57:07.742Z,8.26
2019-02-19T19:59:37.558Z,8.16
2019-02-19T20:02:07.579Z,8.02
2019-02-19T20:04:37.287Z,7.96
2019-02-19T20:07:06.980Z,7.98
2019-02-19T20:09:36.760Z,7.95
2019-02-19T20:12:06.420Z,7.93
2019-02-19T20:14:36.052Z,7.90
2019-02-19T20:17:05.447Z,7.84
2019-02-19T20:19:35.099Z,7.90
2019-02-19T20:22:04.780Z,7.85
2019-02-19T20:24:34.410Z,7.80
2019-02-19T20:27:04.307Z,7.71
2019-02-19T20:29:34.097Z,7.71
2019-02-19T20:32:03.766Z,7.64
2019-02-19T20:34:33.394Z,7.67
2019-02-19T20:37:03.242Z,7.65
2019-02-19T20:39:33.113Z,7.75
2019-02-19T20:42:02.867Z,7.77
2019-02-19T20:44:32.283Z,7.56
2019-02-19T20:47:02.130Z,7.45
2019-02-19T20:49:31.839Z,7.37
2019-02-19T20:52:01.438Z,7.30
2019-02-19T20:54:31.160Z,7.25
2019-02-19T20:57:01.042Z,7.26
2019-02-19T20:59:30.796Z,7.31
2019-02-19T21:02:00.256Z,7.33
2019-02-19T21:04:29.999Z,7.21
2019-02-19T21:07:01.662Z,7.25
2019-02-19T21:09:31.125Z,7.40
2019-02-19T21:12:00.625Z,7.48
2019-02-19T21:14:30.367Z,7.37
2019-02-19T21:17:00.038Z,7.27
2019-02-19T21:19:29.575Z,7.28
2019-02-19T21:21:59.085Z,7.24
2019-02-19T21:24:30.540Z,7.18
2019-02-19T21:26:59.988Z,7.07
2019-02-19T21:29:29.417Z,7.04
2019-02-19T21:31:59.155Z,6.92
2019-02-19T21:34:28.852Z,6.89
2019-02-19T21:36:58.614Z,6.85
2019-02-19T21:39:28.019Z,6.78
2019-02-19T21:41:57.782Z,6.72
2019-02-19T21:44:27.182Z,6.72
2019-02-19T21:46:56.835Z,6.68
2019-02-19T21:49:26.606Z,6.63
2019-02-19T21:51:56.196Z,6.62
2019-02-19T21:54:25.983Z,6.66
2019-02-19T21:56:55.681Z,6.61
2019-02-19T21:59:25.265Z,6.66
2019-02-19T22:01:54.834Z,6.59
2019-02-19T22:04:24.225Z,6.47
2019-02-19T22:06:53.945Z,6.57
2019-02-19T22:09:23.659Z,6.64
2019-02-19T22:11:53.251Z,6.53
2019-02-19T22:14:22.888Z,6.49
2019-02-19T22:16:52.594Z,6.44
2019-02-19T22:19:22.302Z,6.42
2019-02-19T22:22:03.700Z,6.39
2019-02-19T22:24:37.226Z,6.33
2019-02-19T22:27:08.217Z,6.26
2019-02-19T22:29:37.891Z,6.23
2019-02-19T22:32:08.608Z,6.31
2019-02-19T22:34:38.103Z,6.29
2019-02-19T22:37:07.657Z,6.24
2019-02-19T22:39:37.252Z,6.31
2019-02-19T22:42:06.999Z,6.37
2019-02-19T22:44:36.678Z,6.32
2019-02-19T22:47:06.094Z,6.34
2019-02-19T22:49:35.490Z,6.34
2019-02-19T22:52:12.357Z,6.27
2019-02-19T22:54:54.457Z,6.23
2019-02-19T22:57:24.168Z,6.19
2019-02-19T22:59:53.662Z,6.13
2019-02-19T23:02:25.563Z,6.09
2019-02-19T23:04:55.403Z,6.09
2019-02-19T23:07:25.182Z,6.08
2019-02-19T23:09:54.957Z,6.06
2019-02-19T23:12:24.547Z,6.04
2019-02-19T23:14:54.354Z,6.03
2019-02-19T23:17:24.096Z,6.02
2019-02-19T23:19:53.814Z,5.98
2019-02-19T23:22:23.503Z,6.00
2019-02-19T23:24:53.232Z,5.97
2019-02-19T23:27:22.817Z,6.01
2019-02-19T23:29:52.545Z,6.00
2019-02-19T23:32:22.234Z,6.01
2019-02-19T23:35:10.868Z,5.96
2019-02-19T23:37:40.690Z,6.04
2019-02-19T23:40:10.334Z,5.98
2019-02-19T23:42:39.960Z,5.95
2019-02-19T23:45:09.865Z,5.93
2019-02-19T23:47:39.276Z,5.91
2019-02-19T23:50:08.945Z,5.96
2019-02-19T23:52:38.781Z,5.98
2019-02-19T23:55:08.569Z,6.04
2019-02-19T23:57:38.156Z,6.03
